createdAt,value
2019-03-23T00:00:53.464Z,12.22
2019-03-23T00:01:53.457Z,12.22
2019-03-23T00:02:53.452Z,12.19
2019-03-23T00:03:53.444Z,12.21
2019-03-23T00:04:53.444Z,12.08
2019-03-23T00:05:53.436Z,12.08
2019-03-23T00:06:53.428Z,12.08
2019-03-23T00:07:53.420Z,12.13
2019-03-23T00:08:53.408Z,12.11
2019-03-23T00:09:53.431Z,11.88
2019-03-23T00:10:53.430Z,12.01
2019-03-23T00:11:53.392Z,11.97
2019-03-23T00:12:53.382Z,11.97
2019-03-23T00:13:53.374Z,11.98
2019-03-23T00:14:53.371Z,11.93
2019-03-23T00:15:53.370Z,11.94
2019-03-23T00:16:53.360Z,11.88
2019-03-23T00:17:53.354Z,11.87
2019-03-23T00:18:53.348Z,11.78
2019-03-23T00:19:53.340Z,11.72
2019-03-23T00:20:53.325Z,11.72
2019-03-23T00:21:53.319Z,11.74
2019-03-23T00:22:53.316Z,11.67
2019-03-23T00:23:53.309Z,11.67
2019-03-23T00:24:53.310Z,11.66
2019-03-23T00:25:53.299Z,11.62
2019-03-23T00:26:53.289Z,11.59
2019-03-23T00:27:53.280Z,11.53
2019-03-23T00:28:53.278Z,11.48
2019-03-23T00:29:53.269Z,11.53
2019-03-23T00:30:53.265Z,11.44
2019-03-23T00:31:53.253Z,11.39
2019-03-23T00:32:53.242Z,11.27
2019-03-23T00:33:53.236Z,11.26
2019-03-23T00:34:53.228Z,11.30
2019-03-23T00:35:53.220Z,11.17
2019-03-23T00:36:53.217Z,11.20
2019-03-23T00:37:53.212Z,11.17
2019-03-23T00:38:53.207Z,11.16
2019-03-23T00:39:53.199Z,11.16
2019-03-23T00:40:53.188Z,11.13
2019-03-23T00:41:53.189Z,11.05
2019-03-23T00:42:53.178Z,11.05
2019-03-23T00:43:53.171Z,11.09
2019-03-23T00:44:53.158Z,10.95
2019-03-23T00:45:53.153Z,10.91
2019-03-23T00:46:53.143Z,10.83
2019-03-23T00:47:53.133Z,10.84
2019-03-23T00:48:53.132Z,10.66
2019-03-23T00:49:53.123Z,10.70
2019-03-23T00:50:53.117Z,10.76
2019-03-23T00:51:53.111Z,10.72
2019-03-23T00:52:53.096Z,10.70
2019-03-23T00:53:53.092Z,10.66
2019-03-23T00:54:53.089Z,10.60
2019-03-23T00:55:53.076Z,10.63
2019-03-23T00:56:53.076Z,10.57
2019-03-23T00:57:53.068Z,10.60
2019-03-23T00:58:53.055Z,10.54
2019-03-23T00:59:53.047Z,10.54
2019-03-23T01:00:53.044Z,10.57
2019-03-23T01:01:53.040Z,10.54
2019-03-23T01:02:53.028Z,10.54
2019-03-23T01:03:53.020Z,10.57
2019-03-23T01:04:53.007Z,10.52
2019-03-23T01:05:53.001Z,10.65
2019-03-23T01:06:52.993Z,10.49
2019-03-23T01:07:52.987Z,10.52
2019-03-23T01:08:52.981Z,10.60
2019-03-23T01:09:52.973Z,10.54
2019-03-23T01:10:52.970Z,10.49
2019-03-23T01:11:52.962Z,10.47
2019-03-23T01:12:52.950Z,10.34
2019-03-23T01:13:52.943Z,10.31
2019-03-23T01:14:52.938Z,10.26
2019-03-23T01:15:52.930Z,10.22
2019-03-23T01:16:52.919Z,10.17
2019-03-23T01:17:52.911Z,10.06
2019-03-23T01:18:52.900Z,9.92
2019-03-23T01:19:52.894Z,9.89
2019-03-23T01:20:52.890Z,9.77
2019-03-23T01:21:52.882Z,9.74
2019-03-23T01:22:52.877Z,9.74
2019-03-23T01:23:52.873Z,9.80
2019-03-23T01:24:52.857Z,9.81
2019-03-23T01:25:52.850Z,9.83
2019-03-23T01:26:52.839Z,9.86
2019-03-23T01:27:52.831Z,9.93
2019-03-23T01:28:52.829Z,9.86
2019-03-23T01:29:52.820Z,9.88
2019-03-23T01:30:52.810Z,9.78
2019-03-23T01:31:52.800Z,9.96
2019-03-23T01:32:52.795Z,9.92
2019-03-23T01:33:52.792Z,9.92
2019-03-23T01:34:52.783Z,9.95
2019-03-23T01:35:52.775Z,9.91
2019-03-23T01:37:02.507Z,9.91
2019-03-23T01:37:52.756Z,9.91
2019-03-23T01:38:52.749Z,9.89
2019-03-23T01:39:52.738Z,9.91
2019-03-23T01:40:52.736Z,9.91
2019-03-23T01:41:52.729Z,9.91
2019-03-23T01:42:52.717Z,9.91
2019-03-23T01:43:52.711Z,9.88
2019-03-23T01:44:52.698Z,9.89
2019-03-23T01:45:52.690Z,9.86
2019-03-23T01:46:52.688Z,9.85
2019-03-23T01:47:52.677Z,9.80
2019-03-23T01:48:52.671Z,9.77
2019-03-23T01:49:52.658Z,9.77
2019-03-23T01:50:52.659Z,9.71
2019-03-23T01:51:52.645Z,9.62
2019-03-23T01:52:52.640Z,9.62
2019-03-23T01:53:52.641Z,9.70
2019-03-23T01:54:52.626Z,9.65
2019-03-23T01:55:52.615Z,9.49
2019-03-23T01:56:52.604Z,9.49
2019-03-23T01:57:52.600Z,9.49
2019-03-23T01:58:52.620Z,9.53
2019-03-23T01:59:52.577Z,9.50
2019-03-23T02:00:52.575Z,9.52
2019-03-23T02:01:52.566Z,9.44
2019-03-23T02:06:52.527Z,9.32
2019-03-23T02:07:52.519Z,9.31
2019-03-23T02:08:52.506Z,9.16
2019-03-23T02:09:52.499Z,9.22
2019-03-23T02:10:52.491Z,9.22
2019-03-23T02:11:52.480Z,9.17
2019-03-23T02:12:52.476Z,9.17
2019-03-23T02:13:52.470Z,9.19
2019-03-23T02:14:52.460Z,9.17
2019-03-23T02:15:52.449Z,9.26
2019-03-23T02:16:52.437Z,9.16
2019-03-23T02:17:52.429Z,9.19
2019-03-23T02:18:52.426Z,9.27
2019-03-23T02:19:52.416Z,9.31
2019-03-23T02:20:52.404Z,9.26
2019-03-23T02:21:52.397Z,9.30
2019-03-23T02:22:52.391Z,9.40
2019-03-23T02:23:52.382Z,9.32
2019-03-23T02:24:52.378Z,9.24
2019-03-23T02:25:52.369Z,9.30
2019-03-23T02:26:52.368Z,9.30
2019-03-23T02:27:52.353Z,9.41
2019-03-23T02:28:52.341Z,9.40
2019-03-23T02:29:52.332Z,9.40
2019-03-23T02:30:52.326Z,9.42
2019-03-23T02:31:52.317Z,9.50
2019-03-23T02:32:52.313Z,9.58
2019-03-23T02:33:52.307Z,9.55
2019-03-23T02:34:52.309Z,9.48
2019-03-23T02:35:52.287Z,9.48
2019-03-23T02:36:52.294Z,9.52
2019-03-23T02:37:52.277Z,9.53
2019-03-23T02:38:52.269Z,9.60
2019-03-23T02:39:52.349Z,9.60
2019-03-23T02:40:52.244Z,9.65
2019-03-23T02:41:52.235Z,9.65
2019-03-23T02:42:52.229Z,9.70
2019-03-23T02:43:52.219Z,9.70
2019-03-23T02:44:52.217Z,9.63
2019-03-23T02:45:52.208Z,9.71
2019-03-23T02:46:52.203Z,9.68
2019-03-23T02:47:52.199Z,9.71
2019-03-23T02:48:52.230Z,9.73
2019-03-23T02:49:52.175Z,9.74
2019-03-23T02:50:52.173Z,9.75
2019-03-23T02:51:52.175Z,9.77
2019-03-23T02:52:52.152Z,9.86
2019-03-23T02:53:52.143Z,9.92
2019-03-23T02:54:52.134Z,9.86
2019-03-23T02:55:52.123Z,9.95
2019-03-23T02:56:52.121Z,9.91
2019-03-23T02:57:52.117Z,9.91
2019-03-23T02:58:52.114Z,9.92
2019-03-23T02:59:52.103Z,9.92
2019-03-23T03:00:52.101Z,9.93
2019-03-23T03:01:52.081Z,9.93
2019-03-23T03:02:52.089Z,9.95
2019-03-23T03:03:52.077Z,9.89
2019-03-23T03:04:52.062Z,9.85
2019-03-23T03:05:52.059Z,9.86
2019-03-23T03:06:52.048Z,9.92
2019-03-23T03:07:52.034Z,9.86
2019-03-23T03:08:52.032Z,9.95
2019-03-23T03:09:52.022Z,9.92
2019-03-23T03:10:52.018Z,9.93
2019-03-23T03:11:52.014Z,9.91
2019-03-23T03:12:51.994Z,10.02
2019-03-23T03:13:51.987Z,9.95
2019-03-23T03:14:51.979Z,10.04
2019-03-23T03:15:51.970Z,10.10
2019-03-23T03:16:51.968Z,10.16
2019-03-23T03:17:51.961Z,10.13
2019-03-23T03:18:51.955Z,10.16
2019-03-23T03:19:51.947Z,10.10
2019-03-23T03:20:51.935Z,10.14
2019-03-23T03:21:51.930Z,10.10
2019-03-23T03:22:51.923Z,10.11
2019-03-23T03:23:51.915Z,10.10
2019-03-23T03:24:51.903Z,10.10
2019-03-23T03:25:51.896Z,10.09
2019-03-23T03:26:51.885Z,10.07
2019-03-23T03:27:51.875Z,9.95
2019-03-23T03:28:51.880Z,10.10
2019-03-23T03:29:51.866Z,9.96
2019-03-23T03:30:51.859Z,9.98
2019-03-23T03:31:51.852Z,9.92
2019-03-23T03:32:51.840Z,9.98
2019-03-23T03:33:51.835Z,9.93
2019-03-23T03:34:51.828Z,9.93
2019-03-23T03:35:51.817Z,9.89
2019-03-23T03:36:51.815Z,9.89
2019-03-23T03:37:56.840Z,9.95
2019-03-23T03:38:51.808Z,9.93
2019-03-23T03:39:51.787Z,9.93
2019-03-23T03:40:51.783Z,9.95
2019-03-23T03:41:51.776Z,9.89
2019-03-23T03:42:51.776Z,9.92
2019-03-23T03:43:51.765Z,9.93
2019-03-23T03:44:51.750Z,9.89
2019-03-23T03:45:51.738Z,9.89
2019-03-23T03:46:51.732Z,9.92
2019-03-23T03:47:51.723Z,9.89
2019-03-23T03:48:51.720Z,9.83
2019-03-23T03:49:51.711Z,9.92
2019-03-23T03:50:51.707Z,9.92
2019-03-23T03:51:51.699Z,9.92
2019-03-23T03:52:51.691Z,9.92
2019-03-23T03:53:51.684Z,9.93
2019-03-23T03:54:51.675Z,9.96
2019-03-23T03:55:51.665Z,9.98
2019-03-23T03:56:51.657Z,9.98
2019-03-23T03:57:51.652Z,10.01
2019-03-23T03:58:51.642Z,10.02
2019-03-23T03:59:51.630Z,10.01
2019-03-23T04:00:51.627Z,10.07
2019-03-23T04:01:51.623Z,10.11
2019-03-23T04:02:51.611Z,10.13
2019-03-23T04:03:51.612Z,10.11
2019-03-23T04:04:51.591Z,10.22
2019-03-23T04:05:51.593Z,10.24
2019-03-23T04:06:51.579Z,10.18
2019-03-23T04:07:51.577Z,10.25
2019-03-23T04:08:51.567Z,10.17
2019-03-23T04:09:51.559Z,10.25
2019-03-23T04:10:51.554Z,10.18
2019-03-23T04:11:51.540Z,10.26
2019-03-23T04:12:51.536Z,10.34
2019-03-23T04:13:51.529Z,10.36
2019-03-23T04:14:51.518Z,10.32
2019-03-23T04:15:51.512Z,10.36
2019-03-23T04:16:51.500Z,10.29
2019-03-23T04:17:51.493Z,10.34
2019-03-23T04:18:51.545Z,10.32
2019-03-23T04:19:51.484Z,10.38
2019-03-23T04:20:51.481Z,10.39
2019-03-23T04:21:51.465Z,10.32
2019-03-23T04:22:51.459Z,10.32
2019-03-23T04:23:51.459Z,10.38
2019-03-23T04:24:51.449Z,10.32
2019-03-23T04:25:51.438Z,10.26
2019-03-23T04:26:51.430Z,10.22
2019-03-23T04:27:51.422Z,10.22
2019-03-23T04:28:51.407Z,10.17
2019-03-23T04:29:51.475Z,10.22
2019-03-23T04:30:51.393Z,10.26
2019-03-23T04:31:51.383Z,10.16
2019-03-23T04:32:51.381Z,10.17
2019-03-23T04:33:51.378Z,10.22
2019-03-23T04:34:51.369Z,10.22
2019-03-23T04:35:51.361Z,10.22
2019-03-23T04:36:51.348Z,10.26
2019-03-23T04:37:51.340Z,10.16
2019-03-23T04:38:51.331Z,10.26
2019-03-23T04:39:51.322Z,10.31
2019-03-23T04:40:51.322Z,10.32
2019-03-23T04:41:51.310Z,10.32
2019-03-23T04:42:51.297Z,10.38
2019-03-23T04:43:51.290Z,10.34
2019-03-23T04:44:51.287Z,10.36
2019-03-23T04:45:51.280Z,10.47
2019-03-23T04:46:51.275Z,10.44
2019-03-23T04:47:51.267Z,10.46
2019-03-23T04:48:51.255Z,10.51
2019-03-23T04:49:51.252Z,10.44
2019-03-23T04:50:51.241Z,10.46
2019-03-23T04:51:51.232Z,10.47
2019-03-23T04:52:51.230Z,10.47
2019-03-23T04:53:51.221Z,10.43
2019-03-23T04:54:51.215Z,10.57
2019-03-23T04:55:51.204Z,10.52
2019-03-23T04:56:51.192Z,10.55
2019-03-23T04:57:51.187Z,10.55
2019-03-23T04:58:51.182Z,10.57
2019-03-23T04:59:51.173Z,10.47
2019-03-23T05:00:51.163Z,10.58
2019-03-23T05:01:51.153Z,10.51
2019-03-23T05:02:51.156Z,10.49
2019-03-23T05:03:51.141Z,10.43
2019-03-23T05:04:51.142Z,10.42
2019-03-23T05:05:51.133Z,10.44
2019-03-23T05:06:51.123Z,10.46
2019-03-23T05:07:51.115Z,10.39
2019-03-23T05:08:51.104Z,10.43
2019-03-23T05:09:51.097Z,10.47
2019-03-23T05:10:51.087Z,10.36
2019-03-23T05:11:51.080Z,10.35
2019-03-23T05:12:51.081Z,10.51
2019-03-23T05:13:51.069Z,10.54
2019-03-23T05:14:51.058Z,10.51
2019-03-23T05:15:51.051Z,10.47
2019-03-23T05:16:51.047Z,10.49
2019-03-23T05:17:51.039Z,10.47
2019-03-23T05:18:51.033Z,10.46
2019-03-23T05:19:51.026Z,10.43
2019-03-23T05:20:51.014Z,10.34
2019-03-23T05:21:51.008Z,10.35
2019-03-23T05:22:50.999Z,10.31
2019-03-23T05:23:50.991Z,10.22
2019-03-23T05:24:50.988Z,10.24
2019-03-23T05:25:50.981Z,10.24
2019-03-23T05:26:50.971Z,10.22
2019-03-23T05:27:50.963Z,10.20
2019-03-23T05:28:50.951Z,10.18
2019-03-23T05:29:50.948Z,10.29
2019-03-23T05:30:50.944Z,10.25
2019-03-23T05:31:50.934Z,10.31
2019-03-23T05:32:50.921Z,10.28
2019-03-23T05:33:50.916Z,10.26
2019-03-23T05:34:50.911Z,10.29
2019-03-23T05:35:50.902Z,10.26
2019-03-23T05:36:50.906Z,10.31
2019-03-23T05:37:50.893Z,10.36
2019-03-23T05:38:50.882Z,10.39
2019-03-23T05:39:50.873Z,10.36
2019-03-23T05:40:50.862Z,10.46
2019-03-23T05:41:50.853Z,10.52
2019-03-23T05:42:50.848Z,10.46
2019-03-23T05:43:50.842Z,10.46
2019-03-23T05:44:50.837Z,10.44
2019-03-23T05:45:50.836Z,10.55
2019-03-23T05:46:50.819Z,10.60
2019-03-23T05:47:50.811Z,10.57
2019-03-23T05:48:50.810Z,10.55
2019-03-23T05:49:50.802Z,10.62
2019-03-23T05:50:50.804Z,10.55
2019-03-23T05:51:50.784Z,10.55
2019-03-23T05:52:50.771Z,10.52
2019-03-23T05:53:50.763Z,10.57
2019-03-23T05:54:50.757Z,10.66
2019-03-23T05:55:50.750Z,10.58
2019-03-23T05:56:50.744Z,10.57
2019-03-23T05:57:50.738Z,10.68
2019-03-23T05:58:50.733Z,10.60
2019-03-23T05:59:50.723Z,10.73
2019-03-23T06:00:50.713Z,10.70
2019-03-23T06:01:50.706Z,10.69
2019-03-23T06:02:50.703Z,10.80
2019-03-23T06:03:50.695Z,10.78
2019-03-23T06:04:50.684Z,10.86
2019-03-23T06:05:50.677Z,10.91
2019-03-23T06:06:50.667Z,10.86
2019-03-23T06:07:50.657Z,10.87
2019-03-23T06:08:54.979Z,10.87
2019-03-23T06:09:50.651Z,10.84
2019-03-23T06:10:50.639Z,10.88
2019-03-23T06:11:50.631Z,10.93
2019-03-23T06:12:50.621Z,10.93
2019-03-23T06:13:50.614Z,10.94
2019-03-23T06:14:50.614Z,11.05
2019-03-23T06:15:50.604Z,11.01
2019-03-23T06:16:50.597Z,10.90
2019-03-23T06:17:50.590Z,11.03
2019-03-23T06:18:50.579Z,10.98
2019-03-23T06:19:50.571Z,11.05
2019-03-23T06:20:50.568Z,11.02
2019-03-23T06:21:50.560Z,11.03
2019-03-23T06:22:50.551Z,11.09
2019-03-23T06:23:50.543Z,11.09
2019-03-23T06:24:50.534Z,11.06
2019-03-23T06:25:50.524Z,11.08
2019-03-23T06:26:50.518Z,11.05
2019-03-23T06:27:50.508Z,11.16
2019-03-23T06:28:50.507Z,11.06
2019-03-23T06:29:50.500Z,11.09
2019-03-23T06:30:50.494Z,11.12
2019-03-23T06:31:50.488Z,11.12
2019-03-23T06:32:50.474Z,11.13
2019-03-23T06:33:50.473Z,11.12
2019-03-23T06:34:50.465Z,11.12
2019-03-23T06:35:50.456Z,11.17
2019-03-23T06:36:50.445Z,11.16
2019-03-23T06:37:50.438Z,11.16
2019-03-23T06:38:50.428Z,11.16
2019-03-23T06:39:50.421Z,11.09
2019-03-23T06:40:50.418Z,11.16
2019-03-23T06:41:50.411Z,11.19
2019-03-23T06:42:59.415Z,11.09
2019-03-23T06:43:50.406Z,11.11
2019-03-23T06:44:50.388Z,11.20
2019-03-23T06:45:50.380Z,11.16
2019-03-23T06:46:50.370Z,11.05
2019-03-23T06:47:50.362Z,11.17
2019-03-23T06:48:50.360Z,11.05
2019-03-23T06:49:50.353Z,11.12
2019-03-23T06:50:50.341Z,11.16
2019-03-23T06:51:50.333Z,11.19
2019-03-23T06:52:50.332Z,11.20
2019-03-23T06:53:50.324Z,11.30
2019-03-23T06:54:50.319Z,11.11
2019-03-23T06:55:50.311Z,11.17
2019-03-23T06:56:50.300Z,11.26
2019-03-23T06:57:50.294Z,11.30
2019-03-23T06:58:50.286Z,11.27
2019-03-23T06:59:50.279Z,11.28
2019-03-23T07:00:50.275Z,11.27
2019-03-23T07:01:50.271Z,11.28
2019-03-23T07:02:50.260Z,11.30
2019-03-23T07:03:50.251Z,11.39
2019-03-23T07:04:50.240Z,11.44
2019-03-23T07:05:50.232Z,11.39
2019-03-23T07:06:50.230Z,11.41
2019-03-23T07:07:50.224Z,11.46
2019-03-23T07:08:50.214Z,11.46
2019-03-23T07:09:50.205Z,11.51
2019-03-23T07:10:50.200Z,11.45
2019-03-23T07:11:50.192Z,11.45
2019-03-23T07:12:50.192Z,11.48
2019-03-23T07:13:50.182Z,11.44
2019-03-23T07:14:50.175Z,11.51
2019-03-23T07:15:50.176Z,11.46
2019-03-23T07:16:50.156Z,11.45
2019-03-23T07:17:50.151Z,11.49
2019-03-23T07:18:50.140Z,11.53
2019-03-23T07:19:50.132Z,11.53
2019-03-23T07:20:50.132Z,11.53
2019-03-23T07:21:50.124Z,11.59
2019-03-23T07:22:50.115Z,11.60
2019-03-23T07:23:50.107Z,11.67
2019-03-23T07:24:50.103Z,11.59
2019-03-23T07:25:50.099Z,11.60
2019-03-23T07:26:50.093Z,11.62
2019-03-23T07:27:50.085Z,11.66
2019-03-23T07:28:50.075Z,11.66
2019-03-23T07:29:50.067Z,11.75
2019-03-23T07:30:50.062Z,11.70
2019-03-23T07:31:50.054Z,11.69
2019-03-23T07:32:50.060Z,11.78
2019-03-23T07:33:50.045Z,11.69
2019-03-23T07:34:50.035Z,11.82
2019-03-23T07:35:50.029Z,11.84
2019-03-23T07:36:50.016Z,11.88
2019-03-23T07:37:50.012Z,11.90
2019-03-23T07:38:50.009Z,11.88
2019-03-23T07:39:50.001Z,11.96
2019-03-23T07:40:49.992Z,11.98
2019-03-23T07:41:49.984Z,11.90
2019-03-23T07:42:49.980Z,11.96
2019-03-23T07:43:49.974Z,12.01
2019-03-23T07:44:49.972Z,11.96
2019-03-23T07:45:49.964Z,11.88
2019-03-23T07:46:49.957Z,11.97
2019-03-23T07:47:49.954Z,12.07
2019-03-23T07:48:49.939Z,12.05
2019-03-23T07:49:49.931Z,11.98
2019-03-23T07:50:49.929Z,12.12
2019-03-23T07:51:49.922Z,12.16
2019-03-23T07:52:49.919Z,12.21
2019-03-23T07:53:49.919Z,12.25
2019-03-23T07:54:49.903Z,12.31
2019-03-23T07:55:49.896Z,12.31
2019-03-23T07:56:49.897Z,12.30
2019-03-23T07:57:49.888Z,12.36
2019-03-23T07:58:49.880Z,12.30
2019-03-23T07:59:49.875Z,12.30
2019-03-23T08:00:49.863Z,12.33
2019-03-23T08:01:49.857Z,12.36
2019-03-23T08:02:49.853Z,12.38
2019-03-23T08:03:49.845Z,12.43
2019-03-23T08:04:49.842Z,12.51
2019-03-23T08:05:49.841Z,12.48
2019-03-23T08:06:49.834Z,12.49
2019-03-23T08:07:49.826Z,12.49
2019-03-23T08:08:49.816Z,12.54
2019-03-23T08:09:49.812Z,12.58
2019-03-23T08:10:49.816Z,12.49
2019-03-23T08:11:49.810Z,12.55
2019-03-23T08:12:49.796Z,12.46
2019-03-23T08:13:49.786Z,12.34
2019-03-23T08:14:49.778Z,12.31
2019-03-23T08:15:49.770Z,12.33
2019-03-23T08:16:49.770Z,12.34
2019-03-23T08:17:49.764Z,12.40
2019-03-23T08:18:49.760Z,12.46
2019-03-23T08:19:49.752Z,12.51
2019-03-23T08:20:49.741Z,12.46
2019-03-23T08:21:49.736Z,12.52
2019-03-23T08:22:49.733Z,12.56
2019-03-23T08:23:49.726Z,12.36
2019-03-23T08:24:49.725Z,12.41
2019-03-23T08:25:49.718Z,12.49
2019-03-23T08:26:49.711Z,12.51
2019-03-23T08:27:49.704Z,12.52
2019-03-23T08:28:49.702Z,12.59
2019-03-23T08:29:49.696Z,12.59
2019-03-23T08:30:49.689Z,12.67
2019-03-23T08:31:49.681Z,12.67
2019-03-23T08:32:49.673Z,12.73
2019-03-23T08:33:51.960Z,12.88
2019-03-23T08:34:49.660Z,12.76
2019-03-23T08:35:49.653Z,12.79
2019-03-23T08:36:49.654Z,12.77
2019-03-23T08:37:49.648Z,12.67
2019-03-23T08:38:51.652Z,12.73
2019-03-23T08:39:49.638Z,12.70
2019-03-23T08:40:49.629Z,12.67
2019-03-23T08:41:49.623Z,12.76
2019-03-23T08:42:49.623Z,12.77
2019-03-23T08:43:49.615Z,12.87
2019-03-23T08:44:49.607Z,12.85
2019-03-23T08:45:49.613Z,12.95
2019-03-23T08:46:49.599Z,12.98
2019-03-23T08:47:49.587Z,13.04
2019-03-23T08:48:49.586Z,13.06
2019-03-23T08:49:49.580Z,13.07
2019-03-23T08:50:49.578Z,13.10
2019-03-23T08:51:49.571Z,13.12
2019-03-23T08:52:49.563Z,13.14
2019-03-23T08:53:49.556Z,13.10
2019-03-23T08:54:49.548Z,13.04
2019-03-23T08:55:49.545Z,13.17
2019-03-23T08:56:49.543Z,13.19
2019-03-23T08:57:49.537Z,13.22
2019-03-23T08:58:49.526Z,13.35
2019-03-23T08:59:49.519Z,13.28
2019-03-23T09:00:49.524Z,13.24
2019-03-23T09:01:49.515Z,13.29
2019-03-23T09:02:49.513Z,13.35
2019-03-23T09:03:52.754Z,13.31
2019-03-23T09:04:49.496Z,13.19
2019-03-23T09:05:49.491Z,13.24
2019-03-23T09:06:49.485Z,13.17
2019-03-23T09:07:49.481Z,13.24
2019-03-23T09:08:49.480Z,13.28
2019-03-23T09:09:58.856Z,13.17
2019-03-23T09:10:49.468Z,13.38
2019-03-23T09:11:49.459Z,13.38
2019-03-23T09:12:49.450Z,13.43
2019-03-23T09:13:49.443Z,13.51
2019-03-23T09:14:49.443Z,13.53
2019-03-23T09:15:49.438Z,13.62
2019-03-23T09:16:49.427Z,13.62
2019-03-23T09:17:49.423Z,13.65
2019-03-23T09:18:49.467Z,13.63
2019-03-23T09:19:49.414Z,13.71
2019-03-23T09:20:49.413Z,13.80
2019-03-23T09:21:49.408Z,13.86
2019-03-23T09:22:49.415Z,13.87
2019-03-23T09:23:49.397Z,13.87
2019-03-23T09:24:49.390Z,13.98
2019-03-23T09:25:49.383Z,13.99
2019-03-23T09:26:49.375Z,13.94
2019-03-23T09:27:49.368Z,13.94
2019-03-23T09:28:49.369Z,13.94
2019-03-23T09:29:49.364Z,13.98
2019-03-23T09:30:49.354Z,13.96
2019-03-23T09:31:49.348Z,13.96
2019-03-23T09:32:49.351Z,13.98
2019-03-23T09:33:49.345Z,13.72
2019-03-23T09:34:49.340Z,13.55
2019-03-23T09:35:49.334Z,13.47
2019-03-23T09:36:49.324Z,13.47
2019-03-23T09:37:49.321Z,13.39
2019-03-23T09:38:49.314Z,13.88
2019-03-23T09:39:49.308Z,13.94
2019-03-23T09:40:49.307Z,15.48
2019-03-23T09:41:49.314Z,15.49
2019-03-23T09:42:49.295Z,15.60
2019-03-23T09:43:49.289Z,16.32
2019-03-23T09:44:49.278Z,17.17
2019-03-23T09:45:49.275Z,17.09
2019-03-23T09:46:49.275Z,16.81
2019-03-23T09:47:49.268Z,16.65
2019-03-23T09:48:49.260Z,16.54
2019-03-23T09:49:49.252Z,16.45
2019-03-23T09:50:49.253Z,16.33
2019-03-23T09:51:49.248Z,16.08
2019-03-23T09:52:49.244Z,15.96
2019-03-23T09:53:49.240Z,15.76
2019-03-23T09:54:49.234Z,15.51
2019-03-23T09:55:49.228Z,15.31
2019-03-23T09:56:49.217Z,15.19
2019-03-23T09:57:49.217Z,14.86
2019-03-23T09:58:49.211Z,14.80
2019-03-23T09:59:49.207Z,14.91
2019-03-23T10:00:49.205Z,14.87
2019-03-23T10:01:49.202Z,14.78
2019-03-23T10:02:49.196Z,14.66
2019-03-23T10:03:49.186Z,14.61
2019-03-23T10:04:49.184Z,14.57
2019-03-23T10:05:49.186Z,14.53
2019-03-23T10:06:49.173Z,14.91
2019-03-23T10:07:49.175Z,15.33
2019-03-23T10:08:49.163Z,15.37
2019-03-23T10:09:49.159Z,15.33
2019-03-23T10:10:49.149Z,15.18
2019-03-23T10:11:49.145Z,17.86
2019-03-23T10:12:49.146Z,19.40
2019-03-23T10:13:49.138Z,20.26
2019-03-23T10:14:49.134Z,21.00
2019-03-23T10:15:49.130Z,20.51
2019-03-23T10:16:49.121Z,20.12
2019-03-23T10:17:49.117Z,19.61
2019-03-23T10:18:49.118Z,19.10
2019-03-23T10:19:49.113Z,18.50
2019-03-23T10:20:49.103Z,18.19
2019-03-23T10:21:49.100Z,17.94
2019-03-23T10:22:49.093Z,17.60
2019-03-23T10:23:49.089Z,17.43
2019-03-23T10:24:49.090Z,17.18
2019-03-23T10:25:49.093Z,16.80
2019-03-23T10:26:49.081Z,16.40
2019-03-23T10:27:49.075Z,16.23
2019-03-23T10:28:49.068Z,16.08
2019-03-23T10:29:49.063Z,15.78
2019-03-23T10:30:49.062Z,15.71
2019-03-23T10:31:49.062Z,15.73
2019-03-23T10:32:49.059Z,15.74
2019-03-23T10:33:49.058Z,15.81
2019-03-23T10:34:49.049Z,15.68
2019-03-23T10:35:49.043Z,15.73
2019-03-23T10:36:49.046Z,15.68
2019-03-23T10:37:49.042Z,15.77
2019-03-23T10:38:49.039Z,15.62
2019-03-23T10:39:49.032Z,15.28
2019-03-23T10:40:49.023Z,14.87
2019-03-23T10:41:49.021Z,15.92
2019-03-23T10:42:49.019Z,16.34
2019-03-23T10:43:49.017Z,16.37
2019-03-23T10:44:49.014Z,16.27
2019-03-23T10:45:49.016Z,16.14
2019-03-23T10:46:49.011Z,16.14
2019-03-23T10:47:49.142Z,15.88
2019-03-23T10:48:48.999Z,15.76
2019-03-23T10:49:48.993Z,15.59
2019-03-23T10:50:48.995Z,15.52
2019-03-23T10:51:48.995Z,15.49
2019-03-23T10:52:48.984Z,15.35
2019-03-23T10:53:48.986Z,15.46
2019-03-23T10:54:48.982Z,16.55
2019-03-23T10:55:48.971Z,16.34
2019-03-23T10:56:48.969Z,16.51
2019-03-23T10:57:48.964Z,16.47
2019-03-23T10:58:48.963Z,16.67
2019-03-23T10:59:48.960Z,16.78
2019-03-23T11:00:48.953Z,16.88
2019-03-23T11:01:48.949Z,17.24
2019-03-23T11:02:48.949Z,17.51
2019-03-23T11:03:48.952Z,17.71
2019-03-23T11:04:48.940Z,17.71
2019-03-23T11:05:48.939Z,17.81
2019-03-23T11:06:48.929Z,17.96
2019-03-23T11:07:48.925Z,18.01
2019-03-23T11:08:48.937Z,18.25
2019-03-23T11:09:48.929Z,18.46
2019-03-23T11:10:48.927Z,18.53
2019-03-23T11:11:48.923Z,18.46
2019-03-23T11:12:48.919Z,18.20
2019-03-23T11:13:48.917Z,18.26
2019-03-23T11:14:48.917Z,19.01
2019-03-23T11:15:48.916Z,19.39
2019-03-23T11:16:48.915Z,20.05
2019-03-23T11:17:48.919Z,20.15
2019-03-23T11:18:48.910Z,20.68
2019-03-23T11:19:48.911Z,20.73
2019-03-23T11:20:48.905Z,20.79
2019-03-23T11:21:48.912Z,21.00
2019-03-23T11:22:48.910Z,21.01
2019-03-23T11:23:48.904Z,20.82
2019-03-23T11:24:48.902Z,20.20
2019-03-23T11:25:48.900Z,20.04
2019-03-23T11:26:48.906Z,19.71
2019-03-23T11:27:48.902Z,19.57
2019-03-23T11:28:48.904Z,19.82
2019-03-23T11:29:48.910Z,19.79
2019-03-23T11:30:48.904Z,19.68
2019-03-23T11:31:48.905Z,19.75
2019-03-23T11:32:48.908Z,19.85
2019-03-23T11:33:48.899Z,20.17
2019-03-23T11:34:48.895Z,20.56
2019-03-23T11:35:57.467Z,20.72
2019-03-23T11:36:48.900Z,20.81
2019-03-23T11:37:49.176Z,20.41
2019-03-23T11:38:48.896Z,19.09
2019-03-23T11:39:48.898Z,17.98
2019-03-23T11:40:54.940Z,17.99
2019-03-23T11:41:48.899Z,17.99
2019-03-23T11:42:50.367Z,17.99
2019-03-23T11:43:48.903Z,18.16
2019-03-23T11:44:48.949Z,18.84
2019-03-23T11:45:48.897Z,19.27
2019-03-23T11:46:48.896Z,19.78
2019-03-23T11:47:48.896Z,20.08
2019-03-23T11:48:48.900Z,20.33
2019-03-23T11:49:48.901Z,20.51
2019-03-23T11:50:48.901Z,20.50
2019-03-23T11:51:48.896Z,20.46
2019-03-23T11:52:48.893Z,21.03
2019-03-23T11:53:48.891Z,21.81
2019-03-23T11:54:48.899Z,21.68
2019-03-23T11:55:48.897Z,21.66
2019-03-23T11:56:48.891Z,22.09
2019-03-23T11:57:48.892Z,21.86
2019-03-23T11:58:48.898Z,21.64
2019-03-23T11:59:48.896Z,21.42
2019-03-23T12:00:48.928Z,21.42
2019-03-23T12:01:51.973Z,21.38
2019-03-23T12:02:48.903Z,21.26
2019-03-23T12:03:48.902Z,20.66
2019-03-23T12:04:48.896Z,20.05
2019-03-23T12:05:48.900Z,20.01
2019-03-23T12:06:48.898Z,20.31
2019-03-23T12:07:48.896Z,20.91
2019-03-23T12:08:48.898Z,20.97
2019-03-23T12:09:48.900Z,20.87
2019-03-23T12:10:48.896Z,20.96
2019-03-23T12:11:48.894Z,21.13
2019-03-23T12:12:48.899Z,21.18
2019-03-23T12:13:48.899Z,20.91
2019-03-23T12:14:48.903Z,20.51
2019-03-23T12:15:48.901Z,20.44
2019-03-23T12:16:48.901Z,20.97
2019-03-23T12:17:48.903Z,21.09
2019-03-23T12:18:48.899Z,21.21
2019-03-23T12:19:48.897Z,21.58
2019-03-23T12:20:48.941Z,21.63
2019-03-23T12:21:50.806Z,21.86
2019-03-23T12:22:48.901Z,21.64
2019-03-23T12:23:48.903Z,21.85
2019-03-23T12:24:48.897Z,21.83
2019-03-23T12:25:48.899Z,21.68
2019-03-23T12:26:48.904Z,21.19
2019-03-23T12:27:48.901Z,20.69
2019-03-23T12:28:48.896Z,20.64
2019-03-23T12:29:48.896Z,20.51
2019-03-23T12:30:48.900Z,20.42
2019-03-23T12:31:48.902Z,20.42
2019-03-23T12:32:48.902Z,20.54
2019-03-23T12:33:48.903Z,20.76
2019-03-23T12:34:48.902Z,20.94
2019-03-23T12:35:48.900Z,20.87
2019-03-23T12:36:48.899Z,20.72
2019-03-23T12:37:48.899Z,20.82
2019-03-23T12:38:48.895Z,20.71
2019-03-23T12:39:48.894Z,20.78
2019-03-23T12:40:48.896Z,21.05
2019-03-23T12:41:48.896Z,21.38
2019-03-23T12:42:48.892Z,21.46
2019-03-23T12:43:48.890Z,21.08
2019-03-23T12:44:48.896Z,20.44
2019-03-23T12:45:48.892Z,20.15
2019-03-23T12:46:48.898Z,20.00
2019-03-23T12:47:48.894Z,19.70
2019-03-23T12:48:48.888Z,19.46
2019-03-23T12:49:48.888Z,18.96
2019-03-23T12:50:48.885Z,18.89
2019-03-23T12:51:48.884Z,19.20
2019-03-23T12:52:48.886Z,19.25
2019-03-23T12:53:48.891Z,19.30
2019-03-23T12:54:48.889Z,19.76
2019-03-23T12:55:48.880Z,19.87
2019-03-23T12:56:48.874Z,20.19
2019-03-23T12:57:48.877Z,20.57
2019-03-23T12:58:48.877Z,20.63
2019-03-23T12:59:48.877Z,20.76
2019-03-23T13:00:48.874Z,20.66
2019-03-23T13:01:48.871Z,20.61